Disclaimer

Please do not use the information listed here in-flight or in-navigation, as they are not provided to us by the airports but are provided by volunteers, so they might be outdated.

Search


Regions


Airport information page

Radio informations:
Tower (TWR) - 118.3 MHz
Ground (GND) - 121.9 MHz
Approach (APP) - 119.7 MHz

Airport informations:
Latitude: 12° 40' 47.80" N
Longitude: 101° 00' 18.10" E
Elevation: 42 feet - 13 meters
Operating hours: Remarks
Operating agency: Military
Timezone: UTC+7
Fuel: JP-8, SemiKeroscene MIL Spec T-83133, without icing inhibitor

Unknown fuel type or whether there is any fuel.

Runway information:
18/36 - 11500 x 197 feet< - >3505 x 60 meters

Recent METARs:
VTBU 182330Z 35004KT 4000 BR FEW020 25/22 Q1012 NOSIG
VTBU 190000Z 35004KT 4000 BR FEW020 25/22 Q1012 NOSIG
VTBU 190030Z 01004KT 5000 BR FEW020 26/22 Q1013 NOSIG

Airport on the map: